"WATCHING THE WEATHER TO PROTECT LIFE AND PROPERTY"


Aviation
Satellite (InfraRed)


TNCA 221500Z 09020KT 9999 SCT022 31/25 Q1013 A2993 NOSIG
TNCB 221455Z 10019KT 070V140 9000 SCT017 30/24 Q1014
TNCC 221500Z 10014KT 070V130 8000 SCT024 31/23 Q1014 NOSIG